sensor_id;sensor_type;location;lat;lon;timestamp;temperature;humidity
54832;DHT22;40730;53.068;6.572;2023-05-10T00:00:47;12.60;99.90
54832;DHT22;40730;53.068;6.572;2023-05-10T00:03:13;12.50;99.90
54832;DHT22;40730;53.068;6.572;2023-05-10T00:05:38;12.50;99.90
54832;DHT22;40730;53.068;6.572;2023-05-10T00:08:04;12.50;99.90
54832;DHT22;40730;53.068;6.572;2023-05-10T00:10:30;12.50;99.90
54832;DHT22;40730;53.068;6.572;2023-05-10T00:12:55;12.50;99.90
54832;DHT22;40730;53.068;6.572;2023-05-10T00:15:21;12.50;99.90
54832;DHT22;40730;53.068;6.572;2023-05-10T00:17:46;12.50;99.90
54832;DHT22;40730;53.068;6.572;2023-05-10T00:20:12;12.50;99.90
54832;DHT22;40730;53.068;6.572;2023-05-10T00:22:38;12.50;99.90
54832;DHT22;40730;53.068;6.572;2023-05-10T00:25:03;12.50;99.90
54832;DHT22;40730;53.068;6.572;2023-05-10T00:27:29;12.40;99.90
54832;DHT22;40730;53.068;6.572;2023-05-10T00:29:55;12.60;99.90
54832;DHT22;40730;53.068;6.572;2023-05-10T00:32:20;12.40;99.90
54832;DHT22;40730;53.068;6.572;2023-05-10T00:34:46;12.50;99.90
54832;DHT22;40730;53.068;6.572;2023-05-10T00:37:11;12.50;99.90
54832;DHT22;40730;53.068;6.572;2023-05-10T00:39:37;12.50;99.90
54832;DHT22;40730;53.068;6.572;2023-05-10T00:42:03;12.50;99.90
54832;DHT22;40730;53.068;6.572;2023-05-10T00:44:29;12.50;99.90
54832;DHT22;40730;53.068;6.572;2023-05-10T00:46:56;12.50;99.90
54832;DHT22;40730;53.068;6.572;2023-05-10T00:49:22;12.50;99.90
54832;DHT22;40730;53.068;6.572;2023-05-10T00:51:48;12.50;99.90
54832;DHT22;40730;53.068;6.572;2023-05-10T00:54:15;12.50;99.90
54832;DHT22;40730;53.068;6.572;2023-05-10T00:56:41;12.50;99.90
54832;DHT22;40730;53.068;6.572;2023-05-10T00:59:08;12.50;99.90
54832;DHT22;40730;53.068;6.572;2023-05-10T01:01:35;12.50;99.90
54832;DHT22;40730;53.068;6.572;2023-05-10T01:04:01;12.50;99.90
54832;DHT22;40730;53.068;6.572;2023-05-10T01:06:28;12.50;99.90
54832;DHT22;40730;53.068;6.572;2023-05-10T01:08:54;12.50;99.90
54832;DHT22;40730;53.068;6.572;2023-05-10T01:11:19;12.50;99.90
54832;DHT22;40730;53.068;6.572;2023-05-10T01:13:50;12.50;99.90
54832;DHT22;40730;53.068;6.572;2023-05-10T01:16:17;12.40;99.90
54832;DHT22;40730;53.068;6.572;2023-05-10T01:18:44;12.50;99.90
54832;DHT22;40730;53.068;6.572;2023-05-10T01:26:36;12.50;99.90
54832;DHT22;40730;53.068;6.572;2023-05-10T01:29:14;12.50;99.90
54832;DHT22;40730;53.068;6.572;2023-05-10T01:34:39;12.50;99.90
54832;DHT22;40730;53.068;6.572;2023-05-10T01:37:11;12.50;99.90
54832;DHT22;40730;53.068;6.572;2023-05-10T01:39:49;12.40;99.90
54832;DHT22;40730;53.068;6.572;2023-05-10T01:42:25;12.50;99.90
54832;DHT22;40730;53.068;6.572;2023-05-10T01:47:42;12.40;99.90
54832;DHT22;40730;53.068;6.572;2023-05-10T01:50:35;12.40;99.90
54832;DHT22;40730;53.068;6.572;2023-05-10T01:53:02;12.30;99.90
54832;DHT22;40730;53.068;6.572;2023-05-10T01:55:30;12.30;99.90
54832;DHT22;40730;53.068;6.572;2023-05-10T01:58:21;12.30;99.90
54832;DHT22;40730;53.068;6.572;2023-05-10T02:00:49;12.30;99.90
54832;DHT22;40730;53.068;6.572;2023-05-10T02:03:16;12.30;99.90
54832;DHT22;40730;53.068;6.572;2023-05-10T02:05:43;12.30;99.90
54832;DHT22;40730;53.068;6.572;2023-05-10T02:08:11;12.20;99.90
54832;DHT22;40730;53.068;6.572;2023-05-10T02:10:39;12.20;99.90
54832;DHT22;40730;53.068;6.572;2023-05-10T02:13:06;12.20;99.90
54832;DHT22;40730;53.068;6.572;2023-05-10T02:15:32;12.20;99.90
54832;DHT22;40730;53.068;6.572;2023-05-10T02:18:00;12.20;99.90
54832;DHT22;40730;53.068;6.572;2023-05-10T02:20:27;12.20;99.90
54832;DHT22;40730;53.068;6.572;2023-05-10T02:22:56;12.20;99.90
54832;DHT22;40730;53.068;6.572;2023-05-10T02:25:23;12.20;99.90
54832;DHT22;40730;53.068;6.572;2023-05-10T02:27:51;12.20;99.90
54832;DHT22;40730;53.068;6.572;2023-05-10T02:30:19;12.20;99.90
54832;DHT22;40730;53.068;6.572;2023-05-10T02:32:47;12.20;99.90
54832;DHT22;40730;53.068;6.572;2023-05-10T02:35:13;12.20;99.90
54832;DHT22;40730;53.068;6.572;2023-05-10T02:37:39;12.20;99.90
54832;DHT22;40730;53.068;6.572;2023-05-10T02:40:06;12.30;99.90
54832;DHT22;40730;53.068;6.572;2023-05-10T02:42:35;12.20;99.90
54832;DHT22;40730;53.068;6.572;2023-05-10T02:45:07;12.30;99.90
54832;DHT22;40730;53.068;6.572;2023-05-10T02:47:33;12.20;99.90
54832;DHT22;40730;53.068;6.572;2023-05-10T02:49:59;12.20;99.90
54832;DHT22;40730;53.068;6.572;2023-05-10T02:52:28;12.20;99.90
54832;DHT22;40730;53.068;6.572;2023-05-10T02:54:55;12.20;99.90
54832;DHT22;40730;53.068;6.572;2023-05-10T02:57:33;12.20;99.90
54832;DHT22;40730;53.068;6.572;2023-05-10T03:00:01;12.10;99.90
54832;DHT22;40730;53.068;6.572;2023-05-10T03:02:28;12.20;99.90
54832;DHT22;40730;53.068;6.572;2023-05-10T03:04:55;12.20;99.90
54832;DHT22;40730;53.068;6.572;2023-05-10T03:07:21;12.20;99.90
54832;DHT22;40730;53.068;6.572;2023-05-10T03:09:48;12.30;99.90
54832;DHT22;40730;53.068;6.572;2023-05-10T03:18:07;12.20;99.90
54832;DHT22;40730;53.068;6.572;2023-05-10T03:20:36;12.20;99.90
54832;DHT22;40730;53.068;6.572;2023-05-10T03:26:09;12.20;99.90
54832;DHT22;40730;53.068;6.572;2023-05-10T03:28:38;12.10;99.90
54832;DHT22;40730;53.068;6.572;2023-05-10T03:31:04;12.10;99.90
54832;DHT22;40730;53.068;6.572;2023-05-10T03:33:31;12.10;99.90
54832;DHT22;40730;53.068;6.572;2023-05-10T03:35:57;12.10;99.90
54832;DHT22;40730;53.068;6.572;2023-05-10T03:38:23;12.10;99.90
54832;DHT22;40730;53.068;6.572;2023-05-10T03:40:49;12.10;99.90
54832;DHT22;40730;53.068;6.572;2023-05-10T03:43:14;12.00;99.90
54832;DHT22;40730;53.068;6.572;2023-05-10T03:45:40;12.10;99.90
54832;DHT22;40730;53.068;6.572;2023-05-10T03:48:05;12.20;99.90
54832;DHT22;40730;53.068;6.572;2023-05-10T03:50:31;12.20;99.90
54832;DHT22;40730;53.068;6.572;2023-05-10T03:52:57;12.10;99.90
54832;DHT22;40730;53.068;6.572;2023-05-10T03:55:23;12.10;99.90
54832;DHT22;40730;53.068;6.572;2023-05-10T03:57:49;12.10;99.90
54832;DHT22;40730;53.068;6.572;2023-05-10T04:00:19;12.10;99.90
54832;DHT22;40730;53.068;6.572;2023-05-10T04:02:44;12.10;99.90
54832;DHT22;40730;53.068;6.572;2023-05-10T04:05:11;12.10;99.90
54832;DHT22;40730;53.068;6.572;2023-05-10T04:07:36;12.20;99.90
54832;DHT22;40730;53.068;6.572;2023-05-10T04:10:02;12.10;99.90
54832;DHT22;40730;53.068;6.572;2023-05-10T04:12:27;12.10;99.90
54832;DHT22;40730;53.068;6.572;2023-05-10T04:14:53;12.10;99.90
54832;DHT22;40730;53.068;6.572;2023-05-10T04:17:19;12.40;99.90
54832;DHT22;40730;53.068;6.572;2023-05-10T04:19:44;12.20;99.90
54832;DHT22;40730;53.068;6.572;2023-05-10T04:22:10;12.10;99.90
54832;DHT22;40730;53.068;6.572;2023-05-10T04:24:36;12.10;99.90
54832;DHT22;40730;53.068;6.572;2023-05-10T04:27:01;12.30;99.90
54832;DHT22;40730;53.068;6.572;2023-05-10T04:29:27;12.40;99.90
54832;DHT22;40730;53.068;6.572;2023-05-10T04:31:52;12.00;99.90
54832;DHT22;40730;53.068;6.572;2023-05-10T04:34:20;12.20;99.90
54832;DHT22;40730;53.068;6.572;2023-05-10T04:36:46;12.10;99.90
54832;DHT22;40730;53.068;6.572;2023-05-10T04:39:11;12.10;99.90
54832;DHT22;40730;53.068;6.572;2023-05-10T04:41:37;12.10;99.90
54832;DHT22;40730;53.068;6.572;2023-05-10T04:44:03;12.10;99.90
54832;DHT22;40730;53.068;6.572;2023-05-10T04:46:29;12.10;99.90
54832;DHT22;40730;53.068;6.572;2023-05-10T04:48:54;12.10;99.90
54832;DHT22;40730;53.068;6.572;2023-05-10T04:51:20;12.10;99.90
54832;DHT22;40730;53.068;6.572;2023-05-10T04:53:46;12.10;99.90
54832;DHT22;40730;53.068;6.572;2023-05-10T04:56:11;12.30;99.90
54832;DHT22;40730;53.068;6.572;2023-05-10T04:58:37;12.10;99.90
54832;DHT22;40730;53.068;6.572;2023-05-10T05:01:08;12.10;99.90
54832;DHT22;40730;53.068;6.572;2023-05-10T05:03:34;12.10;99.90
54832;DHT22;40730;53.068;6.572;2023-05-10T05:06:00;12.10;99.90
54832;DHT22;40730;53.068;6.572;2023-05-10T05:08:26;12.10;99.90
54832;DHT22;40730;53.068;6.572;2023-05-10T05:10:52;12.20;99.90
54832;DHT22;40730;53.068;6.572;2023-05-10T05:13:17;12.10;99.90
54832;DHT22;40730;53.068;6.572;2023-05-10T05:15:43;12.10;99.90
54832;DHT22;40730;53.068;6.572;2023-05-10T05:18:09;12.10;99.90
54832;DHT22;40730;53.068;6.572;2023-05-10T05:20:35;12.10;99.90
54832;DHT22;40730;53.068;6.572;2023-05-10T05:23:01;12.10;99.90
54832;DHT22;40730;53.068;6.572;2023-05-10T05:25:26;12.10;99.90
54832;DHT22;40730;53.068;6.572;2023-05-10T05:27:52;12.10;99.90
54832;DHT22;40730;53.068;6.572;2023-05-10T05:30:17;12.00;99.90
54832;DHT22;40730;53.068;6.572;2023-05-10T05:32:43;12.00;99.90
54832;DHT22;40730;53.068;6.572;2023-05-10T05:35:08;12.00;99.90
54832;DHT22;40730;53.068;6.572;2023-05-10T05:37:34;12.10;99.90
54832;DHT22;40730;53.068;6.572;2023-05-10T05:40:00;12.10;99.90
54832;DHT22;40730;53.068;6.572;2023-05-10T05:42:27;12.10;99.90
54832;DHT22;40730;53.068;6.572;2023-05-10T05:44:52;12.10;99.90
54832;DHT22;40730;53.068;6.572;2023-05-10T05:47:18;12.10;99.90
54832;DHT22;40730;53.068;6.572;2023-05-10T05:49:43;12.10;99.90
54832;DHT22;40730;53.068;6.572;2023-05-10T05:52:11;12.10;99.90
54832;DHT22;40730;53.068;6.572;2023-05-10T05:54:36;12.20;99.90
54832;DHT22;40730;53.068;6.572;2023-05-10T05:57:02;12.20;99.90
54832;DHT22;40730;53.068;6.572;2023-05-10T05:59:28;12.10;99.90
54832;DHT22;40730;53.068;6.572;2023-05-10T06:01:54;12.10;99.90
54832;DHT22;40730;53.068;6.572;2023-05-10T06:04:20;12.10;99.90
54832;DHT22;40730;53.068;6.572;2023-05-10T06:06:45;12.10;99.90
54832;DHT22;40730;53.068;6.572;2023-05-10T06:09:11;12.10;99.90
54832;DHT22;40730;53.068;6.572;2023-05-10T06:11:37;12.10;99.90
54832;DHT22;40730;53.068;6.572;2023-05-10T06:14:03;12.10;99.90
54832;DHT22;40730;53.068;6.572;2023-05-10T06:16:34;12.10;99.90
54832;DHT22;40730;53.068;6.572;2023-05-10T06:18:59;12.00;99.90
54832;DHT22;40730;53.068;6.572;2023-05-10T06:21:25;12.10;99.90
54832;DHT22;40730;53.068;6.572;2023-05-10T06:23:51;12.10;99.90
54832;DHT22;40730;53.068;6.572;2023-05-10T06:26:16;12.50;99.90
54832;DHT22;40730;53.068;6.572;2023-05-10T06:28:42;12.10;99.90
54832;DHT22;40730;53.068;6.572;2023-05-10T06:31:08;12.10;99.90
54832;DHT22;40730;53.068;6.572;2023-05-10T06:33:33;12.40;99.90
54832;DHT22;40730;53.068;6.572;2023-05-10T06:35:59;12.20;99.90
54832;DHT22;40730;53.068;6.572;2023-05-10T06:38:25;12.10;99.90
54832;DHT22;40730;53.068;6.572;2023-05-10T06:40:51;12.10;99.90
54832;DHT22;40730;53.068;6.572;2023-05-10T06:43:16;12.10;99.90
54832;DHT22;40730;53.068;6.572;2023-05-10T06:45:42;12.10;99.90
54832;DHT22;40730;53.068;6.572;2023-05-10T06:48:08;12.10;99.90
54832;DHT22;40730;53.068;6.572;2023-05-10T06:50:34;12.10;99.90
54832;DHT22;40730;53.068;6.572;2023-05-10T06:53:00;12.30;99.90
54832;DHT22;40730;53.068;6.572;2023-05-10T06:55:27;12.10;99.90
54832;DHT22;40730;53.068;6.572;2023-05-10T06:57:52;12.00;99.90
54832;DHT22;40730;53.068;6.572;2023-05-10T07:00:18;12.50;99.90
54832;DHT22;40730;53.068;6.572;2023-05-10T07:02:44;12.00;99.90
54832;DHT22;40730;53.068;6.572;2023-05-10T07:05:10;12.00;99.90
54832;DHT22;40730;53.068;6.572;2023-05-10T07:07:36;12.10;99.90
54832;DHT22;40730;53.068;6.572;2023-05-10T07:10:02;12.00;99.90
54832;DHT22;40730;53.068;6.572;2023-05-10T07:12:28;12.00;99.90
54832;DHT22;40730;53.068;6.572;2023-05-10T07:14:53;12.00;99.90
54832;DHT22;40730;53.068;6.572;2023-05-10T07:17:19;12.00;99.90
54832;DHT22;40730;53.068;6.572;2023-05-10T07:19:45;12.00;99.90
54832;DHT22;40730;53.068;6.572;2023-05-10T07:22:10;12.10;99.90
54832;DHT22;40730;53.068;6.572;2023-05-10T07:24:36;12.10;99.90
54832;DHT22;40730;53.068;6.572;2023-05-10T07:27:02;12.10;99.90
54832;DHT22;40730;53.068;6.572;2023-05-10T07:29:27;12.20;99.90
54832;DHT22;40730;53.068;6.572;2023-05-10T07:31:54;12.20;99.90
54832;DHT22;40730;53.068;6.572;2023-05-10T07:34:19;12.10;99.90
54832;DHT22;40730;53.068;6.572;2023-05-10T07:36:45;12.30;99.90
54832;DHT22;40730;53.068;6.572;2023-05-10T07:39:11;12.30;99.90
54832;DHT22;40730;53.068;6.572;2023-05-10T07:41:36;12.40;99.90
54832;DHT22;40730;53.068;6.572;2023-05-10T07:44:03;12.40;99.90
54832;DHT22;40730;53.068;6.572;2023-05-10T07:46:29;12.50;99.90
54832;DHT22;40730;53.068;6.572;2023-05-10T07:48:55;12.40;99.90
54832;DHT22;40730;53.068;6.572;2023-05-10T07:51:21;12.40;99.90
54832;DHT22;40730;53.068;6.572;2023-05-10T07:53:46;12.50;99.90
54832;DHT22;40730;53.068;6.572;2023-05-10T07:56:24;12.40;99.90
54832;DHT22;40730;53.068;6.572;2023-05-10T07:58:51;12.40;99.90
54832;DHT22;40730;53.068;6.572;2023-05-10T08:01:17;12.40;99.90
54832;DHT22;40730;53.068;6.572;2023-05-10T08:03:43;12.50;99.90
54832;DHT22;40730;53.068;6.572;2023-05-10T08:06:08;12.40;99.90
54832;DHT22;40730;53.068;6.572;2023-05-10T08:08:34;12.50;99.90
54832;DHT22;40730;53.068;6.572;2023-05-10T08:10:59;12.40;99.90
54832;DHT22;40730;53.068;6.572;2023-05-10T08:13:25;12.30;99.90
54832;DHT22;40730;53.068;6.572;2023-05-10T08:15:51;12.40;99.90
54832;DHT22;40730;53.068;6.572;2023-05-10T08:18:18;12.60;99.90
54832;DHT22;40730;53.068;6.572;2023-05-10T08:20:44;12.40;99.90
54832;DHT22;40730;53.068;6.572;2023-05-10T08:23:11;12.40;99.90
54832;DHT22;40730;53.068;6.572;2023-05-10T08:25:37;12.40;99.90
54832;DHT22;40730;53.068;6.572;2023-05-10T08:28:03;12.50;99.90
54832;DHT22;40730;53.068;6.572;2023-05-10T08:30:28;12.50;99.90
54832;DHT22;40730;53.068;6.572;2023-05-10T08:32:54;12.40;99.90
54832;DHT22;40730;53.068;6.572;2023-05-10T08:35:20;12.50;99.90
54832;DHT22;40730;53.068;6.572;2023-05-10T08:37:45;12.50;99.90
54832;DHT22;40730;53.068;6.572;2023-05-10T08:40:11;12.50;99.90
54832;DHT22;40730;53.068;6.572;2023-05-10T08:42:40;12.50;99.90
54832;DHT22;40730;53.068;6.572;2023-05-10T08:45:10;12.50;99.90
54832;DHT22;40730;53.068;6.572;2023-05-10T08:47:36;12.50;99.90
54832;DHT22;40730;53.068;6.572;2023-05-10T08:50:03;12.50;99.90
54832;DHT22;40730;53.068;6.572;2023-05-10T08:52:30;12.50;99.90
54832;DHT22;40730;53.068;6.572;2023-05-10T08:54:56;12.60;99.90
54832;DHT22;40730;53.068;6.572;2023-05-10T08:57:22;12.70;99.90
54832;DHT22;40730;53.068;6.572;2023-05-10T08:59:47;12.60;99.90
54832;DHT22;40730;53.068;6.572;2023-05-10T09:02:13;12.60;99.90
54832;DHT22;40730;53.068;6.572;2023-05-10T09:04:39;12.70;99.90
54832;DHT22;40730;53.068;6.572;2023-05-10T09:07:06;12.70;99.90
54832;DHT22;40730;53.068;6.572;2023-05-10T09:09:33;12.80;99.90
54832;DHT22;40730;53.068;6.572;2023-05-10T09:11:59;12.80;99.90
54832;DHT22;40730;53.068;6.572;2023-05-10T09:14:25;12.80;99.90
54832;DHT22;40730;53.068;6.572;2023-05-10T09:16:51;12.90;99.90
54832;DHT22;40730;53.068;6.572;2023-05-10T09:19:17;13.00;99.90
54832;DHT22;40730;53.068;6.572;2023-05-10T09:21:43;13.20;99.90
54832;DHT22;40730;53.068;6.572;2023-05-10T09:24:09;13.00;99.90
54832;DHT22;40730;53.068;6.572;2023-05-10T09:26:35;13.00;99.90
54832;DHT22;40730;53.068;6.572;2023-05-10T09:29:02;13.10;99.90
54832;DHT22;40730;53.068;6.572;2023-05-10T09:31:48;13.10;99.90
54832;DHT22;40730;53.068;6.572;2023-05-10T09:34:30;13.40;99.90
54832;DHT22;40730;53.068;6.572;2023-05-10T09:36:59;13.40;99.90
54832;DHT22;40730;53.068;6.572;2023-05-10T09:39:38;13.30;99.90
54832;DHT22;40730;53.068;6.572;2023-05-10T09:42:06;13.40;99.90
54832;DHT22;40730;53.068;6.572;2023-05-10T09:44:33;13.50;99.90
54832;DHT22;40730;53.068;6.572;2023-05-10T09:47:00;13.60;99.90
54832;DHT22;40730;53.068;6.572;2023-05-10T09:49:26;13.60;99.90
54832;DHT22;40730;53.068;6.572;2023-05-10T09:52:05;13.70;99.90
54832;DHT22;40730;53.068;6.572;2023-05-10T09:54:32;13.60;99.90
54832;DHT22;40730;53.068;6.572;2023-05-10T09:56:58;13.70;99.90
54832;DHT22;40730;53.068;6.572;2023-05-10T09:59:28;13.80;99.90
54832;DHT22;40730;53.068;6.572;2023-05-10T10:01:59;13.80;99.90
54832;DHT22;40730;53.068;6.572;2023-05-10T10:04:25;13.80;99.90
54832;DHT22;40730;53.068;6.572;2023-05-10T10:07:04;13.80;99.90
54832;DHT22;40730;53.068;6.572;2023-05-10T10:09:32;13.80;99.90
54832;DHT22;40730;53.068;6.572;2023-05-10T10:11:58;13.70;99.90
54832;DHT22;40730;53.068;6.572;2023-05-10T10:14:24;13.70;99.90
54832;DHT22;40730;53.068;6.572;2023-05-10T10:16:50;13.70;99.90
54832;DHT22;40730;53.068;6.572;2023-05-10T10:19:18;13.70;99.90
54832;DHT22;40730;53.068;6.572;2023-05-10T10:21:45;13.70;99.90
54832;DHT22;40730;53.068;6.572;2023-05-10T10:24:10;13.80;99.90
54832;DHT22;40730;53.068;6.572;2023-05-10T10:26:37;13.80;99.90
54832;DHT22;40730;53.068;6.572;2023-05-10T10:29:29;14.00;99.90
54832;DHT22;40730;53.068;6.572;2023-05-10T10:34:30;14.00;99.90
54832;DHT22;40730;53.068;6.572;2023-05-10T10:36:57;14.20;99.90
54832;DHT22;40730;53.068;6.572;2023-05-10T10:39:24;14.10;99.90
54832;DHT22;40730;53.068;6.572;2023-05-10T10:41:54;14.10;99.90
54832;DHT22;40730;53.068;6.572;2023-05-10T10:55:00;14.10;99.90
54832;DHT22;40730;53.068;6.572;2023-05-10T10:57:32;14.20;99.90
54832;DHT22;40730;53.068;6.572;2023-05-10T11:02:51;14.20;99.90
54832;DHT22;40730;53.068;6.572;2023-05-10T11:07:59;14.20;99.90
54832;DHT22;40730;53.068;6.572;2023-05-10T11:10:26;14.10;99.90
54832;DHT22;40730;53.068;6.572;2023-05-10T11:13:06;14.10;99.90
54832;DHT22;40730;53.068;6.572;2023-05-10T11:15:38;14.10;99.90
54832;DHT22;40730;53.068;6.572;2023-05-10T11:18:22;14.10;99.90
54832;DHT22;40730;53.068;6.572;2023-05-10T11:20:55;14.10;99.90
54832;DHT22;40730;53.068;6.572;2023-05-10T11:23:21;14.10;99.90
54832;DHT22;40730;53.068;6.572;2023-05-10T11:25:48;14.20;99.90
54832;DHT22;40730;53.068;6.572;2023-05-10T11:28:17;14.10;99.90
54832;DHT22;40730;53.068;6.572;2023-05-10T11:30:44;14.20;99.90
54832;DHT22;40730;53.068;6.572;2023-05-10T11:33:14;14.20;99.90
54832;DHT22;40730;53.068;6.572;2023-05-10T11:35:40;14.20;99.90
54832;DHT22;40730;53.068;6.572;2023-05-10T11:38:07;14.10;99.90
54832;DHT22;40730;53.068;6.572;2023-05-10T11:40:36;14.10;99.90
54832;DHT22;40730;53.068;6.572;2023-05-10T11:43:03;14.10;99.90
54832;DHT22;40730;53.068;6.572;2023-05-10T11:45:32;14.20;99.90
54832;DHT22;40730;53.068;6.572;2023-05-10T11:47:58;14.10;99.90
54832;DHT22;40730;53.068;6.572;2023-05-10T11:50:24;14.10;99.90
54832;DHT22;40730;53.068;6.572;2023-05-10T11:52:55;14.20;99.90
54832;DHT22;40730;53.068;6.572;2023-05-10T11:55:21;14.30;99.90
54832;DHT22;40730;53.068;6.572;2023-05-10T11:57:51;14.40;99.90
54832;DHT22;40730;53.068;6.572;2023-05-10T12:00:16;14.50;99.90
54832;DHT22;40730;53.068;6.572;2023-05-10T12:02:42;14.50;99.90
54832;DHT22;40730;53.068;6.572;2023-05-10T12:05:08;14.60;99.90
54832;DHT22;40730;53.068;6.572;2023-05-10T12:07:35;14.60;99.90
54832;DHT22;40730;53.068;6.572;2023-05-10T12:12:38;14.70;99.90
54832;DHT22;40730;53.068;6.572;2023-05-10T12:15:05;14.70;99.90
54832;DHT22;40730;53.068;6.572;2023-05-10T12:17:37;14.70;99.90
54832;DHT22;40730;53.068;6.572;2023-05-10T12:20:14;14.70;99.90
54832;DHT22;40730;53.068;6.572;2023-05-10T12:22:43;14.60;99.90
54832;DHT22;40730;53.068;6.572;2023-05-10T12:25:09;14.50;99.90
54832;DHT22;40730;53.068;6.572;2023-05-10T12:27:35;14.50;99.90
54832;DHT22;40730;53.068;6.572;2023-05-10T12:30:02;14.50;99.90
54832;DHT22;40730;53.068;6.572;2023-05-10T12:32:38;14.40;99.90
54832;DHT22;40730;53.068;6.572;2023-05-10T12:35:04;14.50;99.90
54832;DHT22;40730;53.068;6.572;2023-05-10T12:37:30;14.50;99.90
54832;DHT22;40730;53.068;6.572;2023-05-10T12:39:55;14.50;99.90
54832;DHT22;40730;53.068;6.572;2023-05-10T12:42:21;14.40;99.90
54832;DHT22;40730;53.068;6.572;2023-05-10T12:44:47;14.60;99.90
54832;DHT22;40730;53.068;6.572;2023-05-10T12:47:12;14.50;99.90
54832;DHT22;40730;53.068;6.572;2023-05-10T12:49:38;14.50;99.90
54832;DHT22;40730;53.068;6.572;2023-05-10T12:52:03;14.40;99.90
54832;DHT22;40730;53.068;6.572;2023-05-10T12:54:29;14.50;99.90
54832;DHT22;40730;53.068;6.572;2023-05-10T12:56:55;14.60;99.90
54832;DHT22;40730;53.068;6.572;2023-05-10T12:59:20;14.70;99.90
54832;DHT22;40730;53.068;6.572;2023-05-10T13:01:46;14.60;99.90
54832;DHT22;40730;53.068;6.572;2023-05-10T13:04:11;14.60;99.90
54832;DHT22;40730;53.068;6.572;2023-05-10T13:06:37;14.70;99.90
54832;DHT22;40730;53.068;6.572;2023-05-10T13:09:03;14.80;99.90
54832;DHT22;40730;53.068;6.572;2023-05-10T13:11:28;14.80;99.90
54832;DHT22;40730;53.068;6.572;2023-05-10T13:13:54;15.00;99.90
54832;DHT22;40730;53.068;6.572;2023-05-10T13:16:20;15.00;99.90
54832;DHT22;40730;53.068;6.572;2023-05-10T13:18:46;15.00;99.90
54832;DHT22;40730;53.068;6.572;2023-05-10T13:21:12;15.00;99.90
54832;DHT22;40730;53.068;6.572;2023-05-10T13:23:37;15.00;99.90
54832;DHT22;40730;53.068;6.572;2023-05-10T13:26:03;15.10;99.90
54832;DHT22;40730;53.068;6.572;2023-05-10T13:28:28;15.00;99.90
54832;DHT22;40730;53.068;6.572;2023-05-10T13:30:54;15.00;99.90
54832;DHT22;40730;53.068;6.572;2023-05-10T13:33:20;15.10;99.90
54832;DHT22;40730;53.068;6.572;2023-05-10T13:35:46;15.10;99.90
54832;DHT22;40730;53.068;6.572;2023-05-10T13:38:12;15.20;99.90
54832;DHT22;40730;53.068;6.572;2023-05-10T13:40:38;15.20;99.90
54832;DHT22;40730;53.068;6.572;2023-05-10T13:43:04;15.30;99.90
54832;DHT22;40730;53.068;6.572;2023-05-10T13:45:30;15.30;99.90
54832;DHT22;40730;53.068;6.572;2023-05-10T13:47:55;15.40;99.90
54832;DHT22;40730;53.068;6.572;2023-05-10T13:50:21;15.40;99.90
54832;DHT22;40730;53.068;6.572;2023-05-10T13:52:46;15.30;99.90
54832;DHT22;40730;53.068;6.572;2023-05-10T13:55:12;15.10;99.90
54832;DHT22;40730;53.068;6.572;2023-05-10T13:57:38;15.00;99.90
54832;DHT22;40730;53.068;6.572;2023-05-10T14:00:04;15.00;99.90
54832;DHT22;40730;53.068;6.572;2023-05-10T14:02:30;14.90;99.90
54832;DHT22;40730;53.068;6.572;2023-05-10T14:04:56;14.90;99.90
54832;DHT22;40730;53.068;6.572;2023-05-10T14:07:22;14.80;99.90
54832;DHT22;40730;53.068;6.572;2023-05-10T14:09:47;14.80;99.90
54832;DHT22;40730;53.068;6.572;2023-05-10T14:12:13;14.80;99.90
54832;DHT22;40730;53.068;6.572;2023-05-10T14:14:40;14.90;99.90
54832;DHT22;40730;53.068;6.572;2023-05-10T14:17:05;14.90;99.90
54832;DHT22;40730;53.068;6.572;2023-05-10T14:19:31;14.90;99.90
54832;DHT22;40730;53.068;6.572;2023-05-10T14:21:59;15.00;99.90
54832;DHT22;40730;53.068;6.572;2023-05-10T14:24:25;15.10;99.90
54832;DHT22;40730;53.068;6.572;2023-05-10T14:26:50;14.90;99.90
54832;DHT22;40730;53.068;6.572;2023-05-10T14:29:21;14.80;99.90
54832;DHT22;40730;53.068;6.572;2023-05-10T14:31:47;14.80;99.90
54832;DHT22;40730;53.068;6.572;2023-05-10T14:34:13;14.90;99.90
54832;DHT22;40730;53.068;6.572;2023-05-10T14:36:38;14.90;99.90
54832;DHT22;40730;53.068;6.572;2023-05-10T14:39:04;15.00;99.90
54832;DHT22;40730;53.068;6.572;2023-05-10T14:41:31;15.00;99.90
54832;DHT22;40730;53.068;6.572;2023-05-10T14:43:58;15.10;99.90
54832;DHT22;40730;53.068;6.572;2023-05-10T14:46:23;15.10;99.90
54832;DHT22;40730;53.068;6.572;2023-05-10T14:48:49;15.20;99.90
54832;DHT22;40730;53.068;6.572;2023-05-10T14:51:14;15.20;99.90
54832;DHT22;40730;53.068;6.572;2023-05-10T14:53:40;15.20;99.90
54832;DHT22;40730;53.068;6.572;2023-05-10T14:56:06;15.20;99.90
54832;DHT22;40730;53.068;6.572;2023-05-10T14:58:32;15.30;99.90
54832;DHT22;40730;53.068;6.572;2023-05-10T15:00:57;15.40;99.90
54832;DHT22;40730;53.068;6.572;2023-05-10T15:03:23;15.50;99.90
54832;DHT22;40730;53.068;6.572;2023-05-10T15:05:49;15.50;99.90
54832;DHT22;40730;53.068;6.572;2023-05-10T15:08:14;15.60;99.90
54832;DHT22;40730;53.068;6.572;2023-05-10T15:10:40;15.80;99.90
54832;DHT22;40730;53.068;6.572;2023-05-10T15:13:06;15.70;99.90
54832;DHT22;40730;53.068;6.572;2023-05-10T15:15:31;15.70;99.90
54832;DHT22;40730;53.068;6.572;2023-05-10T15:17:57;15.70;99.90
54832;DHT22;40730;53.068;6.572;2023-05-10T15:20:22;15.70;99.90
54832;DHT22;40730;53.068;6.572;2023-05-10T15:22:48;15.60;99.90
54832;DHT22;40730;53.068;6.572;2023-05-10T15:25:14;15.50;99.90
54832;DHT22;40730;53.068;6.572;2023-05-10T15:27:41;15.40;99.90
54832;DHT22;40730;53.068;6.572;2023-05-10T15:30:09;15.40;99.90
54832;DHT22;40730;53.068;6.572;2023-05-10T15:32:35;15.30;99.90
54832;DHT22;40730;53.068;6.572;2023-05-10T15:35:00;15.20;99.90
54832;DHT22;40730;53.068;6.572;2023-05-10T15:37:26;15.10;99.90
54832;DHT22;40730;53.068;6.572;2023-05-10T15:39:52;15.10;99.90
54832;DHT22;40730;53.068;6.572;2023-05-10T15:42:18;15.00;99.90
54832;DHT22;40730;53.068;6.572;2023-05-10T15:44:43;15.00;99.90
54832;DHT22;40730;53.068;6.572;2023-05-10T15:47:10;15.00;99.90
54832;DHT22;40730;53.068;6.572;2023-05-10T15:49:36;15.00;99.90
54832;DHT22;40730;53.068;6.572;2023-05-10T15:52:01;15.00;99.90
54832;DHT22;40730;53.068;6.572;2023-05-10T15:54:27;14.90;99.90
54832;DHT22;40730;53.068;6.572;2023-05-10T15:56:53;14.90;99.90
54832;DHT22;40730;53.068;6.572;2023-05-10T15:59:19;14.90;99.90
54832;DHT22;40730;53.068;6.572;2023-05-10T16:01:44;14.90;99.90
54832;DHT22;40730;53.068;6.572;2023-05-10T16:04:10;14.80;99.90
54832;DHT22;40730;53.068;6.572;2023-05-10T16:06:36;14.90;99.90
54832;DHT22;40730;53.068;6.572;2023-05-10T16:09:02;14.90;99.90